Time;durP1;ratioP1;P1;durP2;ratioP2;P2;SDS_P1;SDS_P2;PMS_P1;PMS_P2;Temp;Humidity;BMP_temperature;BMP_pressure;BME280_temperature;BME280_humidity;BME280_pressure;Samples;Min_cycle;Max_cycle;Signal;HPM_P1;HPM_P2
2021/12/05 00:17:25;;;;;;;9.85;1.42;;;6.00;99.90;;;;;;5056967;28;20059;-64
2021/12/05 00:19:59;;;;;;;4.70;1.95;;;5.90;99.90;;;;;;5056861;28;20017;-63
2021/12/05 00:22:47;;;;;;;6.35;0.98;;;5.90;99.90;;;;;;5038940;28;20025;-64
2021/12/05 00:25:24;;;;;;;4.20;1.17;;;5.90;99.90;;;;;;5058112;28;20020;-64
2021/12/05 00:28:05;;;;;;;6.47;1.20;;;5.90;99.90;;;;;;5057699;28;20177;-64
2021/12/05 00:55:01;;;;;;;7.35;1.23;;;5.90;99.90;;;;;;5055431;28;20021;-64
2021/12/05 00:59:29;;;;;;;6.35;1.23;;;5.90;99.90;;;;;;5054974;28;20021;-64
2021/12/05 01:07:40;;;;;;;3.50;0.93;;;5.80;99.90;;;;;;5055109;28;20543;-64
2021/12/05 01:10:15;;;;;;;5.90;1.63;;;5.80;99.90;;;;;;5055024;28;20025;-64
2021/12/05 01:13:14;;;;;;;5.82;1.05;;;5.90;99.90;;;;;;5054621;28;20025;-64
2021/12/05 01:15:36;;;;;;;5.55;1.00;;;5.80;99.90;;;;;;5054352;28;20055;-64
2021/12/05 01:18:08;;;;;;;6.53;1.20;;;5.80;99.90;;;;;;5054454;28;20057;-64
2021/12/05 01:20:42;;;;;;;4.85;1.80;;;5.80;99.90;;;;;;5054391;28;20259;-64
2021/12/05 01:26:06;;;;;;;7.53;1.50;;;5.70;99.90;;;;;;5034601;28;20037;-64
2021/12/05 01:31:20;;;;;;;8.13;1.67;;;5.70;99.90;;;;;;5054370;28;20025;-64
2021/12/05 01:36:37;;;;;;;5.85;1.17;;;5.60;99.90;;;;;;5054402;28;20025;-64
2021/12/05 01:39:26;;;;;;;5.05;1.20;;;5.60;99.90;;;;;;5054319;28;20059;-64
2021/12/05 01:42:36;;;;;;;5.80;1.30;;;5.60;99.90;;;;;;5054029;28;20028;-64
2021/12/05 01:48:03;;;;;;;9.40;1.42;;;5.50;99.90;;;;;;5054754;28;20040;-63
2021/12/05 01:56:15;;;;;;;4.47;1.38;;;5.40;99.90;;;;;;5054347;28;20021;-64
2021/12/05 02:10:39;;;;;;;6.70;1.50;;;5.30;99.90;;;;;;5053799;28;20082;-64
2021/12/05 02:15:14;;;;;;;4.30;1.43;;;5.30;99.90;;;;;;5053397;28;20017;-63
2021/12/05 02:40:09;;;;;;;6.03;1.77;;;5.40;99.90;;;;;;5053196;28;20024;-63
2021/12/05 02:42:47;;;;;;;4.68;1.10;;;5.40;99.90;;;;;;5053553;28;20021;-64
2021/12/05 02:45:13;;;;;;;6.53;1.10;;;5.40;99.90;;;;;;5053117;28;20033;-65
2021/12/05 02:47:41;;;;;;;;;;;5.40;99.90;;;;;;5053898;28;20040;-64
2021/12/05 02:50:09;;;;;;;6.07;1.38;;;5.40;99.90;;;;;;5056548;28;19944;-65
2021/12/05 02:52:38;;;;;;;7.18;1.40;;;5.40;99.90;;;;;;5056993;28;20032;-65
2021/12/05 02:55:13;;;;;;;5.45;1.30;;;5.40;99.90;;;;;;5057292;28;20025;-64
2021/12/05 03:00:15;;;;;;;8.75;1.40;;;5.30;99.90;;;;;;5057254;28;20040;-65
2021/12/05 03:02:45;;;;;;;6.43;0.90;;;5.20;99.90;;;;;;5056933;28;20090;-64
2021/12/05 03:05:14;;;;;;;8.65;1.33;;;5.30;99.90;;;;;;5057321;28;20021;-63
2021/12/05 03:07:42;;;;;;;5.65;0.80;;;5.30;99.90;;;;;;5057092;28;20021;-63
2021/12/05 03:10:11;;;;;;;7.35;1.33;;;5.20;99.90;;;;;;5057260;28;20367;-64
2021/12/05 03:12:38;;;;;;;7.35;2.03;;;5.30;99.90;;;;;;5056916;28;20129;-63
2021/12/05 03:15:08;;;;;;;5.80;1.48;;;5.20;99.90;;;;;;5038896;28;20029;-64
2021/12/05 03:17:34;;;;;;;7.72;1.10;;;5.20;99.90;;;;;;5057019;28;20028;-63
2021/12/05 03:19:59;;;;;;;8.73;1.00;;;5.20;99.90;;;;;;5056784;28;20116;-64
2021/12/05 03:22:25;;;;;;;3.37;1.00;;;5.30;99.90;;;;;;5056550;28;20060;-64
2021/12/05 03:24:51;;;;;;;4.07;1.05;;;5.30;99.90;;;;;;5056542;28;20424;-64
2021/12/05 03:27:17;;;;;;;4.80;1.03;;;5.30;99.90;;;;;;5056522;28;20032;-63
2021/12/05 03:29:42;;;;;;;2.05;0.75;;;5.30;99.90;;;;;;5038575;28;20053;-64
2021/12/05 03:32:08;;;;;;;4.57;1.10;;;5.40;99.90;;;;;;5056524;28;20037;-63
2021/12/05 03:34:35;;;;;;;5.03;1.00;;;5.30;99.90;;;;;;5038989;28;20083;-63
2021/12/05 03:37:03;;;;;;;4.73;1.23;;;5.30;99.90;;;;;;5056620;28;20022;-64
2021/12/05 03:39:29;;;;;;;5.10;1.65;;;5.20;99.90;;;;;;5056870;28;20025;-64
2021/12/05 03:41:56;;;;;;;4.30;1.48;;;5.10;99.90;;;;;;5038250;28;20094;-64
2021/12/05 03:44:25;;;;;;;15.75;3.47;;;5.20;99.90;;;;;;5056338;28;20040;-65
2021/12/05 03:46:53;;;;;;;7.05;1.10;;;5.10;99.90;;;;;;5056139;28;20025;-64
2021/12/05 03:49:21;;;;;;;3.60;1.15;;;5.20;99.90;;;;;;5056277;28;20064;-62
2021/12/05 03:52:00;;;;;;;4.18;1.38;;;5.10;99.90;;;;;;5055977;28;20021;-64
2021/12/05 03:54:27;;;;;;;5.28;1.40;;;5.10;99.90;;;;;;5056226;28;20094;-64
2021/12/05 03:56:53;;;;;;;2.63;0.98;;;5.00;99.90;;;;;;5056402;28;20029;-63
2021/12/05 03:59:19;;;;;;;3.22;1.00;;;5.00;99.90;;;;;;5055983;28;20052;-63
2021/12/05 04:01:46;;;;;;;3.57;1.00;;;5.10;99.90;;;;;;5055494;28;20039;-64
2021/12/05 04:04:12;;;;;;;4.88;1.10;;;5.00;99.90;;;;;;5056132;28;20033;-64
2021/12/05 04:06:38;;;;;;;6.75;1.58;;;5.10;99.90;;;;;;5055756;28;20029;-64
2021/12/05 04:09:08;;;;;;;4.07;1.10;;;5.00;99.90;;;;;;5055599;28;20110;-64
2021/12/05 04:11:38;;;;;;;3.80;0.85;;;5.00;99.90;;;;;;5055608;28;20028;-64
2021/12/05 04:14:07;;;;;;;5.68;1.10;;;5.00;99.90;;;;;;5055660;28;20025;-63
2021/12/05 04:16:33;;;;;;;6.43;1.70;;;5.00;99.90;;;;;;5055686;28;20017;-62
2021/12/05 04:18:59;;;;;;;;;;;4.90;99.90;;;;;;5056093;28;20032;-63
2021/12/05 04:21:25;;;;;;;5.18;1.20;;;4.90;99.90;;;;;;5055744;28;20281;-63
2021/12/05 04:23:51;;;;;;;4.07;1.48;;;4.80;99.90;;;;;;5055352;28;20025;-63
2021/12/05 04:26:18;;;;;;;6.60;1.30;;;4.80;99.90;;;;;;5055478;28;20103;-64
2021/12/05 04:28:44;;;;;;;4.30;1.20;;;4.80;99.90;;;;;;5055334;28;20109;-63
2021/12/05 04:31:10;;;;;;;2.67;1.00;;;4.90;99.90;;;;;;5055536;28;20014;-63
2021/12/05 04:33:37;;;;;;;3.08;1.10;;;4.90;99.90;;;;;;5055171;28;20114;-63
2021/12/05 04:36:05;;;;;;;3.80;0.93;;;4.80;99.90;;;;;;5055502;28;20025;-63
2021/12/05 04:38:31;;;;;;;4.60;1.00;;;4.80;99.90;;;;;;5037249;28;20053;-61
2021/12/05 04:40:56;;;;;;;5.70;0.98;;;4.70;99.90;;;;;;5055595;28;20029;-63
2021/12/05 04:43:22;;;;;;;3.13;0.77;;;4.70;99.90;;;;;;5055165;28;20040;-64
2021/12/05 04:45:48;;;;;;;3.97;0.60;;;4.70;99.90;;;;;;5037120;28;20043;-63
2021/12/05 04:48:14;;;;;;;4.13;0.70;;;4.70;99.90;;;;;;5037006;28;20123;-63
2021/12/05 04:50:41;;;;;;;4.43;1.02;;;4.70;99.90;;;;;;5054897;28;20149;-64
2021/12/05 04:53:08;;;;;;;4.20;0.70;;;4.80;99.90;;;;;;5054877;28;20033;-63
2021/12/05 04:55:34;;;;;;;2.60;0.70;;;4.90;99.90;;;;;;5055177;28;20020;-63
2021/12/05 04:58:02;;;;;;;4.22;0.80;;;4.90;99.90;;;;;;5036935;28;20039;-63
2021/12/05 05:00:41;;;;;;;7.60;0.88;;;4.90;99.90;;;;;;5055155;28;20036;-64
2021/12/05 05:03:08;;;;;;;3.10;0.80;;;4.80;99.90;;;;;;5037205;28;20037;-63
2021/12/05 05:05:34;;;;;;;2.67;0.90;;;4.80;99.90;;;;;;5054909;28;20025;-63
2021/12/05 05:08:00;;;;;;;2.88;0.85;;;4.90;99.90;;;;;;5054571;28;20032;-63
2021/12/05 05:10:29;;;;;;;2.28;0.80;;;4.90;99.90;;;;;;5054918;28;20029;-63
2021/12/05 05:12:55;;;;;;;4.43;0.93;;;4.90;99.90;;;;;;5054069;28;20017;-63
2021/12/05 05:15:25;;;;;;;3.83;1.17;;;4.90;99.90;;;;;;5054535;28;20075;-63
2021/12/05 05:17:52;;;;;;;3.47;0.80;;;4.90;99.90;;;;;;5054774;28;20027;-63
2021/12/05 05:20:34;;;;;;;8.43;1.67;;;4.90;99.90;;;;;;5054353;28;20021;-63
2021/12/05 05:49:24;;;;;;;5.90;1.00;;;4.80;99.90;;;;;;5054369;28;20025;-64
2021/12/05 05:51:50;;;;;;;3.95;0.77;;;4.80;99.90;;;;;;5054269;28;20036;-64
2021/12/05 05:54:17;;;;;;;6.72;1.13;;;4.80;99.90;;;;;;5053806;28;20474;-64
2021/12/05 05:56:45;;;;;;;3.42;0.90;;;4.70;99.90;;;;;;5054022;28;20496;-64
2021/12/05 05:59:39;;;;;;;12.73;2.15;;;4.60;99.90;;;;;;5053938;28;20029;-64
2021/12/05 06:04:33;;;;;;;6.68;1.10;;;4.70;99.90;;;;;;5054377;28;20080;-64
2021/12/05 06:06:59;;;;;;;4.60;1.00;;;4.60;99.90;;;;;;5053888;28;20029;-64
2021/12/05 06:09:24;;;;;;;6.23;1.23;;;4.70;99.90;;;;;;5053888;28;20083;-64
2021/12/05 06:11:50;;;;;;;4.30;1.03;;;4.70;99.90;;;;;;5053331;28;20496;-62
2021/12/05 06:14:16;;;;;;;3.50;0.87;;;4.70;99.90;;;;;;5053912;28;20029;-64
2021/12/05 06:16:41;;;;;;;2.80;0.70;;;4.70;99.90;;;;;;5053542;28;20021;-64
2021/12/05 06:19:07;;;;;;;3.00;0.97;;;4.70;99.90;;;;;;5035604;28;20029;-64
2021/12/05 06:21:33;;;;;;;3.40;0.82;;;4.70;99.90;;;;;;5053392;28;20025;-64
2021/12/05 06:23:59;;;;;;;5.07;1.77;;;4.70;99.90;;;;;;5052945;28;20032;-64
2021/12/05 06:26:24;;;;;;;4.63;0.83;;;4.80;99.90;;;;;;5053598;28;20026;-64
2021/12/05 06:29:31;;;;;;;2.28;0.80;;;4.80;99.90;;;;;;5053526;28;20036;-64
2021/12/05 06:47:37;;;;;;;6.07;1.00;;;5.00;99.90;;;;;;5053425;28;20520;-65
2021/12/05 06:50:04;;;;;;;5.57;1.03;;;5.00;99.90;;;;;;5052992;28;20052;-64
2021/12/05 06:52:30;;;;;;;;;;;4.90;99.90;;;;;;5053284;28;20107;-63
2021/12/05 06:54:55;;;;;;;3.45;0.85;;;4.90;99.90;;;;;;5053270;28;20105;-66
2021/12/05 06:57:21;;;;;;;4.33;0.80;;;4.90;99.90;;;;;;5053251;28;20482;-64
2021/12/05 06:59:48;;;;;;;6.53;1.10;;;4.80;99.90;;;;;;5053453;28;20494;-64
2021/12/05 07:02:16;;;;;;;2.03;0.75;;;4.70;99.90;;;;;;5053289;28;20100;-65
2021/12/05 07:04:54;;;;;;;5.50;1.88;;;4.70;99.90;;;;;;5035154;28;20448;-64
2021/12/05 07:07:25;;;;;;;3.88;1.02;;;4.60;99.90;;;;;;5053352;28;20104;-59
2021/12/05 07:09:52;;;;;;;2.83;0.80;;;4.70;99.90;;;;;;5052973;28;20488;-63
2021/12/05 07:15:56;;;;;;;2.13;0.68;;;4.70;99.90;;;;;;5053201;28;19959;-62
2021/12/05 07:26:07;;;;;;;3.40;0.90;;;4.70;99.90;;;;;;4964743;28;20035;-61
2021/12/05 07:42:22;;;;;;;5.53;1.15;;;4.80;99.90;;;;;;5056534;28;20036;-64
2021/12/05 07:44:48;;;;;;;3.63;1.20;;;4.90;99.90;;;;;;5056648;28;20025;-63
2021/12/05 07:47:21;;;;;;;2.92;0.80;;;5.00;99.90;;;;;;5038532;28;20226;-63
2021/12/05 07:49:48;;;;;;;3.40;0.98;;;5.00;99.90;;;;;;5080158;22;20136;-62
2021/12/05 07:52:19;;;;;;;2.60;0.88;;;5.00;99.90;;;;;;5040767;28;20021;-63
2021/12/05 07:54:46;;;;;;;3.80;0.95;;;5.10;99.90;;;;;;5042174;28;20025;-63
2021/12/05 07:57:22;;;;;;;2.13;1.10;;;5.10;99.90;;;;;;5062784;28;20025;-63
2021/12/05 08:16:02;;;;;;;3.95;0.80;;;5.30;99.90;;;;;;5065134;28;20028;-66
2021/12/05 08:18:29;;;;;;;6.07;0.90;;;5.50;99.90;;;;;;5064788;28;20049;-66
2021/12/05 08:20:56;;;;;;;5.25;1.50;;;5.60;99.90;;;;;;5061695;28;20040;-62
2021/12/05 08:23:25;;;;;;;4.70;1.15;;;5.60;99.90;;;;;;5064349;28;20105;-67
2021/12/05 08:26:31;;;;;;;10.48;1.30;;;5.70;99.90;;;;;;5064616;28;20052;-63
2021/12/05 08:34:19;;;;;;;3.25;1.00;;;5.80;99.90;;;;;;5056463;28;20025;-65
2021/12/05 08:37:28;;;;;;;6.22;1.20;;;5.70;99.90;;;;;;5055248;28;20062;-66
2021/12/05 08:40:37;;;;;;;7.85;1.65;;;5.60;99.90;;;;;;5056047;28;20099;-62
2021/12/05 08:43:03;;;;;;;4.40;1.20;;;5.60;99.90;;;;;;5052036;28;20029;-62
2021/12/05 08:45:56;;;;;;;3.22;1.10;;;5.70;99.90;;;;;;5057384;28;20064;-64
2021/12/05 09:29:50;;;;;;;4.10;1.33;;;5.20;99.90;;;;;;5058152;28;20036;-63
2021/12/05 10:10:23;;;;;;;9.77;6.03;;;5.40;99.90;;;;;;5054273;28;20036;-61
2021/12/05 10:13:10;;;;;;;9.88;6.13;;;5.40;99.90;;;;;;5054408;28;20021;-62
2021/12/05 10:15:52;;;;;;;7.88;5.10;;;5.40;99.90;;;;;;5054497;28;20021;-58
2021/12/05 10:27:07;;;;;;;;;;;5.50;99.90;;;;;;5055120;28;20052;-62
2021/12/05 10:38:06;;;;;;;5.70;1.30;;;5.50;99.90;;;;;;5054333;28;20021;-62
2021/12/05 10:40:54;;;;;;;5.60;1.23;;;5.60;99.90;;;;;;5054787;28;20021;-65
2021/12/05 10:43:23;;;;;;;4.20;1.23;;;5.80;99.90;;;;;;5055889;28;20070;-65
2021/12/05 10:45:50;;;;;;;4.47;1.33;;;5.80;99.90;;;;;;5057972;28;20027;-64
2021/12/05 10:48:21;;;;;;;4.50;1.67;;;5.80;99.90;;;;;;5056976;28;20032;-62
2021/12/05 10:50:57;;;;;;;4.07;1.58;;;5.80;99.90;;;;;;5035835;28;20155;-61
2021/12/05 10:53:56;;;;;;;4.97;1.38;;;5.90;99.90;;;;;;5055229;28;20033;-62
2021/12/05 10:56:29;;;;;;;4.57;1.83;;;6.00;99.90;;;;;;5054984;28;20017;-61
2021/12/05 10:59:00;;;;;;;5.75;1.45;;;6.10;99.90;;;;;;5055001;28;20366;-63
2021/12/05 11:01:38;;;;;;;3.80;1.45;;;6.10;99.90;;;;;;5054875;28;20025;-64
2021/12/05 11:04:14;;;;;;;4.72;1.30;;;6.10;99.90;;;;;;5054183;28;20435;-64
2021/12/05 11:06:47;;;;;;;8.02;2.78;;;6.30;99.90;;;;;;5036518;28;20025;-63
2021/12/05 11:09:24;;;;;;;5.93;1.20;;;6.40;99.90;;;;;;5036135;28;20454;-61
2021/12/05 11:12:00;;;;;;;6.22;1.40;;;6.50;99.90;;;;;;5057392;28;20021;-63
2021/12/05 11:14:29;;;;;;;3.50;1.85;;;6.70;99.90;;;;;;5039305;28;20025;-61
2021/12/05 11:17:04;;;;;;;6.65;1.48;;;6.80;99.90;;;;;;5039542;28;20021;-65
2021/12/05 11:19:40;;;;;;;2.22;0.95;;;6.70;99.90;;;;;;5058330;28;20414;-65
2021/12/05 11:22:43;;;;;;;4.53;2.05;;;6.50;99.90;;;;;;5057418;28;20147;-66
2021/12/05 11:25:18;;;;;;;4.47;0.90;;;6.40;99.90;;;;;;5052387;28;20402;-62
2021/12/05 11:27:50;;;;;;;4.43;1.02;;;6.10;99.90;;;;;;5057102;28;20037;-61
2021/12/05 11:30:22;;;;;;;3.28;1.10;;;6.00;99.90;;;;;;5057614;28;20100;-68
2021/12/05 11:32:59;;;;;;;4.85;1.27;;;5.80;99.90;;;;;;5057347;28;20032;-63
2021/12/05 11:35:29;;;;;;;2.92;1.17;;;5.70;99.90;;;;;;5039050;28;20044;-65
2021/12/05 11:38:16;;;;;;;3.17;0.95;;;5.60;99.90;;;;;;5057370;28;20032;-60
2021/12/05 11:40:47;;;;;;;3.35;1.33;;;5.70;99.90;;;;;;5058539;28;20021;-62
2021/12/05 11:43:16;;;;;;;2.20;1.08;;;5.70;99.90;;;;;;5058550;28;20064;-60
2021/12/05 11:45:50;;;;;;;2.42;1.13;;;5.70;99.90;;;;;;5040125;28;20032;-60
2021/12/05 11:48:18;;;;;;;2.80;0.90;;;5.90;99.90;;;;;;5057615;28;20029;-61
2021/12/05 11:50:44;;;;;;;2.88;1.10;;;5.90;99.90;;;;;;5039554;28;20021;-62
2021/12/05 11:53:10;;;;;;;1.90;0.67;;;6.00;99.90;;;;;;5039507;28;20106;-64
2021/12/05 11:55:35;;;;;;;2.47;0.87;;;5.90;99.90;;;;;;5058583;28;20022;-61
2021/12/05 11:58:01;;;;;;;5.47;1.40;;;6.00;99.90;;;;;;5058118;28;20676;-62
2021/12/05 12:00:28;;;;;;;5.40;1.13;;;6.00;99.90;;;;;;5040697;28;20497;-61
2021/12/05 12:02:53;;;;;;;6.00;2.65;;;6.00;99.90;;;;;;5058798;28;20167;-61
2021/12/05 12:05:25;;;;;;;3.03;1.10;;;6.00;99.90;;;;;;5058270;28;20025;-62
2021/12/05 12:08:10;;;;;;;2.20;1.27;;;6.00;99.90;;;;;;5056143;28;20028;-68
2021/12/05 12:10:41;;;;;;;1.83;0.70;;;6.00;99.90;;;;;;5038835;28;20449;-68
2021/12/05 12:13:11;;;;;;;2.22;0.88;;;5.90;99.90;;;;;;5056164;28;20016;-66
2021/12/05 12:15:39;;;;;;;5.15;1.00;;;5.80;99.90;;;;;;5037918;28;20063;-61
2021/12/05 12:21:07;;;;;;;4.22;0.93;;;5.90;99.90;;;;;;5037326;28;20561;-60
2021/12/05 12:23:33;;;;;;;4.05;0.90;;;6.00;99.90;;;;;;5055944;28;20094;-61
2021/12/05 12:26:02;;;;;;;1.50;0.73;;;6.00;99.90;;;;;;5055959;28;20029;-60
2021/12/05 12:28:28;;;;;;;4.40;1.30;;;6.00;99.90;;;;;;5055938;28;20025;-62
2021/12/05 12:30:58;;;;;;;;;;;6.00;99.90;;;;;;5038027;28;20389;-61
2021/12/05 12:33:47;;;;;;;3.00;1.58;;;6.00;99.90;;;;;;5055790;28;19904;-66
2021/12/05 12:36:13;;;;;;;10.15;3.75;;;6.10;99.90;;;;;;5056478;28;20021;-61
2021/12/05 12:38:43;;;;;;;3.70;1.42;;;6.00;99.90;;;;;;5056879;28;20035;-63
2021/12/05 12:41:17;;;;;;;3.60;1.45;;;5.90;99.90;;;;;;5038267;28;20036;-62
2021/12/05 12:43:55;;;;;;;4.55;1.45;;;5.80;99.90;;;;;;5038325;28;20082;-64
2021/12/05 12:46:29;;;;;;;7.60;1.50;;;5.70;99.90;;;;;;5057057;28;20028;-62
2021/12/05 12:49:23;;;;;;;3.22;1.20;;;5.70;99.90;;;;;;5056394;28;20520;-63
2021/12/05 12:51:59;;;;;;;4.07;1.17;;;5.90;99.90;;;;;;5056887;28;20025;-63
2021/12/05 12:54:40;;;;;;;8.32;2.45;;;5.90;99.90;;;;;;5038736;28;20055;-61
2021/12/05 12:57:20;;;;;;;5.00;1.70;;;5.90;99.90;;;;;;5055887;28;20044;-62
2021/12/05 13:00:30;;;;;;;6.25;2.05;;;6.00;99.90;;;;;;5037517;28;20021;-62
2021/12/05 13:03:02;;;;;;;5.40;1.88;;;6.00;99.90;;;;;;4985853;28;20040;-62
2021/12/05 13:11:11;;;;;;;8.95;2.85;;;6.00;99.90;;;;;;5057437;28;20040;-64
2021/12/05 13:13:39;;;;;;;5.07;1.70;;;6.10;99.90;;;;;;5038738;28;20021;-64
2021/12/05 13:16:26;;;;;;;4.00;1.92;;;6.20;99.90;;;;;;5038303;28;20335;-62
2021/12/05 13:19:22;;;;;;;5.90;1.60;;;6.20;99.90;;;;;;5055879;28;20109;-63
2021/12/05 13:21:50;;;;;;;2.95;1.35;;;6.10;99.90;;;;;;5045120;28;20036;-64
2021/12/05 13:24:25;;;;;;;6.50;1.67;;;6.00;99.90;;;;;;5042467;28;20031;-64
2021/12/05 13:27:03;;;;;;;5.15;2.15;;;6.10;99.90;;;;;;5057948;28;20052;-64
2021/12/05 13:29:36;;;;;;;6.18;2.88;;;6.00;99.90;;;;;;5037290;28;20032;-65
2021/12/05 13:32:16;;;;;;;1.88;1.02;;;6.00;99.90;;;;;;5055974;28;20039;-67
2021/12/05 13:34:42;;;;;;;3.20;1.65;;;6.00;99.90;;;;;;5056245;28;20079;-67
2021/12/05 13:37:13;;;;;;;3.97;1.33;;;6.00;99.90;;;;;;5054807;28;20021;-68
2021/12/05 13:39:40;;;;;;;3.03;1.10;;;5.90;99.90;;;;;;5036713;28;20033;-67
2021/12/05 13:42:16;;;;;;;10.02;5.32;;;5.90;99.90;;;;;;5036888;28;20409;-68
2021/12/05 13:45:00;;;;;;;3.35;1.45;;;5.90;99.90;;;;;;5054900;28;20127;-64
2021/12/05 13:47:39;;;;;;;2.63;1.00;;;5.90;99.90;;;;;;5038153;28;20041;-65
2021/12/05 13:50:27;;;;;;;4.03;1.40;;;5.90;99.90;;;;;;5056608;28;20021;-65
2021/12/05 13:53:01;;;;;;;1.70;0.98;;;5.80;99.90;;;;;;5056647;28;20048;-65
2021/12/05 13:55:39;;;;;;;1.73;0.88;;;5.90;99.90;;;;;;5056381;28;20076;-65
2021/12/05 13:58:14;;;;;;;4.93;1.50;;;6.10;99.90;;;;;;5056768;28;20075;-65
2021/12/05 14:00:44;;;;;;;3.60;0.90;;;6.10;99.90;;;;;;5055700;28;20029;-65
2021/12/05 14:03:09;;;;;;;4.93;1.17;;;6.00;99.90;;;;;;5037535;28;20029;-65
2021/12/05 14:05:35;;;;;;;3.53;0.93;;;6.00;99.90;;;;;;5056176;28;20359;-65
2021/12/05 14:08:01;;;;;;;4.07;0.95;;;6.00;99.90;;;;;;5054363;28;20025;-65
2021/12/05 14:10:41;;;;;;;1.85;1.00;;;6.00;99.90;;;;;;5038288;28;20029;-65
2021/12/05 14:13:06;;;;;;;1.98;1.00;;;6.00;99.90;;;;;;5056419;28;20100;-65
2021/12/05 14:15:32;;;;;;;4.17;1.77;;;6.00;99.90;;;;;;5056598;28;20480;-64
2021/12/05 14:17:58;;;;;;;6.93;1.97;;;6.00;99.90;;;;;;5055645;28;20024;-64
2021/12/05 14:20:25;;;;;;;2.43;1.40;;;6.20;99.90;;;;;;5055545;28;20029;-65
2021/12/05 14:22:52;;;;;;;3.70;1.55;;;6.30;99.90;;;;;;5055304;28;20369;-65
2021/12/05 14:25:24;;;;;;;3.58;1.20;;;6.20;99.90;;;;;;5054942;28;20021;-64
2021/12/05 14:27:57;;;;;;;4.13;1.33;;;6.20;99.90;;;;;;5054724;28;20076;-65
2021/12/05 14:30:25;;;;;;;3.15;1.10;;;6.30;99.90;;;;;;5055488;28;20033;-65
2021/12/05 14:32:59;;;;;;;4.97;1.10;;;6.10;99.90;;;;;;5055385;28;20025;-65
2021/12/05 14:35:30;;;;;;;4.30;1.27;;;6.10;99.90;;;;;;5055222;28;20018;-65
2021/12/05 14:37:56;;;;;;;3.83;0.90;;;6.10;99.90;;;;;;5054854;28;20021;-65
2021/12/05 14:40:30;;;;;;;4.97;1.20;;;5.90;99.90;;;;;;5054513;28;20470;-64
2021/12/05 14:43:03;;;;;;;2.65;1.10;;;5.90;99.90;;;;;;5054840;28;20070;-64
2021/12/05 14:45:31;;;;;;;4.20;1.20;;;5.90;99.90;;;;;;5054381;28;20112;-64
2021/12/05 14:48:03;;;;;;;2.75;1.13;;;5.80;99.90;;;;;;5053078;28;20040;-66
2021/12/05 14:50:34;;;;;;;4.13;1.30;;;5.80;99.90;;;;;;5053187;28;20036;-67
2021/12/05 14:53:06;;;;;;;3.30;1.30;;;5.80;99.90;;;;;;5053904;28;20023;-62
2021/12/05 14:55:35;;;;;;;3.33;1.13;;;5.70;99.90;;;;;;5055124;28;20484;-63
2021/12/05 14:58:04;;;;;;;3.75;1.60;;;5.70;99.90;;;;;;5054717;28;20053;-62
2021/12/05 15:00:49;;;;;;;3.05;1.25;;;5.90;99.90;;;;;;5054781;28;20025;-63
2021/12/05 15:03:20;;;;;;;3.72;1.10;;;5.90;99.90;;;;;;5036974;28;20021;-69
2021/12/05 15:05:56;;;;;;;4.45;1.30;;;5.80;99.90;;;;;;5055836;28;20043;-68
2021/12/05 15:08:25;;;;;;;6.30;1.63;;;5.70;99.90;;;;;;5056173;28;20486;-68
2021/12/05 15:11:02;;;;;;;5.50;1.10;;;5.70;99.90;;;;;;5036048;28;20029;-68
2021/12/05 15:13:28;;;;;;;4.38;1.65;;;5.70;99.90;;;;;;5053751;28;20048;-70
2021/12/05 15:15:56;;;;;;;3.95;1.80;;;5.80;99.90;;;;;;5053402;28;20021;-67
2021/12/05 15:18:28;;;;;;;4.28;2.08;;;5.70;99.90;;;;;;5053012;28;20515;-67
2021/12/05 15:20:55;;;;;;;4.55;1.75;;;5.70;99.90;;;;;;5035655;28;20108;-63
2021/12/05 15:23:25;;;;;;;;;;;5.70;99.90;;;;;;5055004;28;20067;-63
2021/12/05 15:25:51;;;;;;;3.08;1.10;;;5.60;99.90;;;;;;5054717;28;20000;-62
2021/12/05 15:28:17;;;;;;;6.80;1.33;;;5.60;99.90;;;;;;5055072;28;20049;-62
2021/12/05 15:30:46;;;;;;;3.72;1.27;;;5.60;99.90;;;;;;5053977;28;20027;-63
2021/12/05 15:33:19;;;;;;;6.18;1.40;;;5.60;99.90;;;;;;5053179;28;20036;-61
2021/12/05 15:35:47;;;;;;;4.35;1.80;;;5.60;99.90;;;;;;5053429;28;20149;-64
2021/12/05 15:38:18;;;;;;;8.05;1.70;;;5.60;99.90;;;;;;5053244;28;20470;-64
2021/12/05 15:40:46;;;;;;;4.07;1.60;;;5.50;99.90;;;;;;5053168;28;20025;-64
2021/12/05 15:43:15;;;;;;;4.50;1.80;;;5.50;99.90;;;;;;5053887;28;20529;-63
2021/12/05 15:45:44;;;;;;;6.68;2.40;;;5.50;99.90;;;;;;5054728;28;20032;-66
2021/12/05 15:48:09;;;;;;;4.78;2.33;;;5.50;99.90;;;;;;5054746;28;20033;-62
2021/12/05 15:50:38;;;;;;;5.77;2.33;;;5.50;99.90;;;;;;5054765;28;20420;-64
2021/12/05 15:53:12;;;;;;;8.73;2.83;;;5.50;99.90;;;;;;5054348;28;20017;-65
2021/12/05 15:55:42;;;;;;;8.30;2.92;;;5.50;99.90;;;;;;5055228;28;20025;-66
2021/12/05 15:58:09;;;;;;;4.35;2.53;;;5.50;99.90;;;;;;5057684;28;20079;-63
2021/12/05 16:00:41;;;;;;;5.35;2.58;;;5.60;99.90;;;;;;5040552;28;20013;-65
2021/12/05 16:03:10;;;;;;;8.27;2.53;;;5.60;99.90;;;;;;5061720;28;20018;-66
2021/12/05 16:05:38;;;;;;;6.00;3.17;;;5.60;99.90;;;;;;5042306;28;20028;-64
2021/12/05 16:08:08;;;;;;;6.82;3.22;;;5.60;99.90;;;;;;5057275;28;20470;-66
2021/12/05 16:10:38;;;;;;;6.65;3.05;;;5.60;99.90;;;;;;5056576;28;20470;-65
2021/12/05 16:13:11;;;;;;;7.15;2.83;;;5.60;99.90;;;;;;5056953;28;20021;-65
2021/12/05 16:15:39;;;;;;;5.63;3.08;;;5.60;99.90;;;;;;5038462;28;20025;-66
2021/12/05 16:18:06;;;;;;;5.90;2.97;;;5.70;99.90;;;;;;5038858;28;20021;-63
2021/12/05 16:20:36;;;;;;;9.90;3.40;;;5.70;99.90;;;;;;5058407;28;20040;-62
2021/12/05 16:23:24;;;;;;;7.97;3.08;;;5.70;99.90;;;;;;5057713;28;20067;-62
2021/12/05 16:25:58;;;;;;;;;;;5.80;99.90;;;;;;5040381;28;20024;-62
2021/12/05 16:28:40;;;;;;;10.77;2.90;;;5.80;99.90;;;;;;5057402;28;20353;-62
2021/12/05 16:31:15;;;;;;;8.02;3.90;;;5.80;99.90;;;;;;5055550;28;20032;-66
2021/12/05 16:33:52;;;;;;;8.57;4.28;;;5.80;99.90;;;;;;5057165;28;20048;-65
2021/12/05 16:36:19;;;;;;;5.75;2.88;;;5.80;99.90;;;;;;5039394;28;20414;-63
2021/12/05 16:38:50;;;;;;;6.43;2.47;;;5.80;99.90;;;;;;5041571;28;20033;-60
2021/12/05 16:41:28;;;;;;;7.57;2.72;;;5.90;99.90;;;;;;5057638;28;20055;-61
2021/12/05 16:43:57;;;;;;;4.60;2.60;;;5.90;99.90;;;;;;5056602;28;20385;-60
2021/12/05 16:46:27;;;;;;;7.18;3.10;;;5.90;99.90;;;;;;5056697;28;20474;-60
2021/12/05 16:48:54;;;;;;;6.55;3.13;;;5.90;99.90;;;;;;5056746;28;20041;-59
2021/12/05 16:51:27;;;;;;;14.32;4.20;;;6.20;99.90;;;;;;5057080;28;20029;-59
2021/12/05 16:54:01;;;;;;;8.93;3.50;;;6.10;99.90;;;;;;5038450;28;20026;-60
2021/12/05 16:56:49;;;;;;;5.40;2.83;;;6.00;99.90;;;;;;5056486;28;20017;-58
2021/12/05 16:59:20;;;;;;;11.20;3.60;;;6.00;99.90;;;;;;5038390;28;20048;-60
2021/12/05 17:01:47;;;;;;;5.55;1.90;;;6.00;99.90;;;;;;5057179;28;20402;-60
2021/12/05 17:04:13;;;;;;;5.55;2.50;;;5.90;99.90;;;;;;5056243;28;20025;-59
2021/12/05 17:06:43;;;;;;;;;;;5.80;99.90;;;;;;5057166;28;20052;-59
2021/12/05 17:09:11;;;;;;;4.63;2.10;;;5.70;99.90;;;;;;5038137;28;19997;-61
2021/12/05 17:11:38;;;;;;;6.68;2.90;;;5.70;99.90;;;;;;5039349;28;20055;-59
2021/12/05 17:14:05;;;;;;;7.65;3.67;;;5.70;99.90;;;;;;5056930;28;20491;-60
2021/12/05 17:16:31;;;;;;;;;;;5.70;99.90;;;;;;5056991;28;20021;-61
2021/12/05 17:19:02;;;;;;;7.85;3.67;;;5.60;99.90;;;;;;5055882;28;19904;-59
2021/12/05 17:21:29;;;;;;;7.22;3.35;;;5.70;99.90;;;;;;5057135;28;20020;-59
2021/12/05 17:24:05;;;;;;;10.32;4.05;;;5.70;99.90;;;;;;5056755;28;20083;-61
2021/12/05 17:26:41;;;;;;;7.00;3.23;;;5.70;99.90;;;;;;5038257;28;20511;-60
2021/12/05 17:29:09;;;;;;;10.60;5.00;;;5.80;99.90;;;;;;5056710;28;20081;-62
2021/12/05 17:31:38;;;;;;;7.38;3.88;;;5.90;99.90;;;;;;5056107;28;20024;-60
2021/12/05 17:34:20;;;;;;;11.75;4.13;;;5.90;99.90;;;;;;5056218;28;20017;-62
2021/12/05 17:36:57;;;;;;;8.38;3.42;;;5.90;99.90;;;;;;5056815;28;20025;-59
2021/12/05 17:39:25;;;;;;;;;;;5.90;99.90;;;;;;5057099;28;20036;-59
2021/12/05 17:41:54;;;;;;;9.18;3.38;;;5.80;99.90;;;;;;5056930;28;19951;-60
2021/12/05 17:44:21;;;;;;;10.25;3.63;;;5.70;99.90;;;;;;5056259;28;20113;-59
2021/12/05 17:46:52;;;;;;;6.97;3.60;;;5.70;99.90;;;;;;5056582;28;20428;-59
2021/12/05 17:49:23;;;;;;;7.63;3.58;;;5.70;99.90;;;;;;5056033;28;20021;-58
2021/12/05 17:51:49;;;;;;;9.45;4.07;;;5.80;99.90;;;;;;5056530;28;20018;-61
2021/12/05 17:54:25;;;;;;;9.40;4.07;;;5.80;99.90;;;;;;5056588;28;20037;-60
2021/12/05 17:56:54;;;;;;;8.30;3.90;;;5.80;99.90;;;;;;5038996;28;20105;-59
2021/12/05 17:59:29;;;;;;;9.45;4.43;;;5.80;99.90;;;;;;5056404;28;20482;-58
2021/12/05 18:04:50;;;;;;;6.85;3.63;;;6.20;99.90;;;;;;5057306;28;20031;-59
2021/12/05 18:07:16;;;;;;;6.97;3.83;;;6.10;99.90;;;;;;5057896;28;20025;-59
2021/12/05 18:09:42;;;;;;;8.50;3.97;;;6.10;99.90;;;;;;5057975;28;20025;-57
2021/12/05 18:12:13;;;;;;;6.88;3.58;;;6.10;99.90;;;;;;5038869;28;20401;-60
2021/12/05 18:14:40;;;;;;;9.02;4.05;;;6.00;99.90;;;;;;5056477;28;20547;-59
2021/12/05 18:17:06;;;;;;;8.95;4.13;;;6.00;99.90;;;;;;5056240;28;20090;-59
2021/12/05 18:19:32;;;;;;;18.05;8.30;;;6.00;99.90;;;;;;5055128;28;20070;-57
2021/12/05 18:21:58;;;;;;;21.70;9.63;;;6.00;99.90;;;;;;5056877;28;20128;-60
2021/12/05 18:24:24;;;;;;;7.65;4.53;;;5.90;99.90;;;;;;5056378;28;20024;-58
2021/12/05 18:26:51;;;;;;;4.78;3.10;;;5.70;99.90;;;;;;5056352;28;20025;-59